Terminal Aerodrome Forecast
Issued by NWS

Home | Current Version | Previous Version | Text Only | Print | Product List | Glossary On
Versions: 1 2 3 4 5 6 7 8 9 10 11 12 13
000
FTUS44 KLZK 262300
TAFBPK
TAF
KBPK 262339Z 2700/2724 34004KT P6SM SCT250
     FM270900 01003KT P6SM BKN250
     FM271400 04006KT P6SM SCT100 OVC250
     FM271800 07006KT P6SM OVC100 PROB30 2722/2724 5SM -SN OVC060=

USA.gov is the U.S. government's official web portal to all federal, state and local government web resources and services.